Latest Weather Observations for Viewbank

IDV60801

Issued at 8:02 pm EST Wednesday 24 August 2016 (issued every 30 minutes, with the page automatically refreshed every 10 minutes)

About weather observations | Map of weather stations | Latest weather observations for VIC | Other Formats
Station Details ID: 086068 Name: VIEWBANK Lat: -37.74 Lon: 145.10 Height: 66.1 m
Data from the previous 72 hours. | See also: Recent months at Viewbank
Date/Time
EST
Temp
°C
App
Temp
°C
Dew
Point
°C
Rel
Hum
%
Delta-T
°C
Wind Press
QNH
hPa
Press
MSL
hPa
Rain since
9am
mm
Dir  Spd
km/h
Gust
km/h
Spd
kts
Gust
kts
24/08:00pm 9.6 6.0 5.2 74 2.0 S 13 20 7 11 1014.3 1014.3 0.0
24/07:30pm 9.6 5.8 5.8 77 1.7 SSW 15 26 8 14 1014.2 1014.2 0.0
24/07:00pm 9.5 6.4 7.4 87 1.0 SSW 13 19 7 10 1014.1 1014.1 0.0
24/06:30pm 9.4 6.3 7.2 86 1.0 SSW 13 20 7 11 1013.8 1013.8 0.0
24/06:00pm 9.3 6.1 6.7 84 1.2 SSW 13 19 7 10 1013.5 1013.5 0.0
24/05:30pm 9.7 5.5 5.9 77 1.8 SSW 17 22 9 12 1013.4 1013.4 0.0
24/05:00pm 11.1 7.5 6.6 74 2.1 SSW 15 22 8 12 1013.1 1013.1 0.0
24/04:30pm 11.3 7.5 5.8 69 2.6 SW 15 24 8 13 1012.9 1012.9 0.0
24/04:00pm 12.0 8.4 6.7 70 2.5 SW 15 28 8 15 1012.8 1012.8 0.0
24/03:30pm 11.8 7.7 6.3 69 2.6 SSW 17 28 9 15 1013.0 1013.0 0.0
24/03:00pm 11.3 7.5 5.8 69 2.6 SSW 15 22 8 12 1013.0 1013.0 0.0
24/02:30pm 11.7 8.0 6.2 69 2.6 SSW 15 24 8 13 1013.1 1013.1 0.0
24/02:00pm 13.1 10.4 7.3 68 2.8 W 11 17 6 9 1013.3 1013.3 0.0
24/01:30pm 11.5 8.3 6.8 73 2.2 SSW 13 20 7 11 1013.7 1013.7 0.0
24/01:00pm 11.4 8.7 7.5 77 1.9 SW 11 20 6 11 1013.9 1013.9 0.0
24/12:30pm 12.5 10.1 6.8 68 2.7 SSE 9 15 5 8 1014.2 1014.2 0.0
24/12:00pm 11.3 9.6 7.4 77 1.9 S 6 11 3 6 1014.8 1014.8 0.0
24/11:30am 9.4 8.5 9.1 98 0.1 S 4 11 2 6 1015.3 1015.3 0.0
24/11:00am 7.1 6.0 7.1 100 0.0 SE 2 7 1 4 1015.7 1015.7 0.0
24/10:30am 6.2 4.6 6.2 100 0.0 SE 4 7 2 4 1016.1 1016.1 0.0
24/10:00am 5.8 4.8 5.8 100 0.0 CALM 0 6 0 3 1016.3 1016.3 0.0
24/09:30am 4.7 2.4 4.7 100 0.0 SE 6 7 3 4 1016.4 1016.5 0.0
24/09:00am 3.5 1.7 3.5 100 0.0 SE 2 6 1 3 1016.6 1016.7 0.0
24/08:30am 2.5 0.9 2.5 100 0.0 CALM 0 6 0 3 1016.8 1016.9 0.0
24/08:00am 1.6 -1.5 1.6 100 0.0 SSW 7 9 4 5 1016.6 1016.7 0.0
24/07:30am 1.3 -1.2 1.3 100 0.0 W 4 7 2 4 1016.7 1016.8 0.0
24/07:00am 0.7 -2.5 0.7 100 0.0 W 7 9 4 5 1016.7 1016.8 0.0
24/06:30am 1.1 -0.7 1.1 100 0.0 CALM 0 0 0 0 1016.6 1016.7 0.0
24/06:00am 1.1 -1.1 1.1 100 0.0 W 2 7 1 4 1016.5 1016.6 0.0
24/05:30am 1.3 -1.2 1.3 100 0.0 W 4 7 2 4 1016.4 1016.5 0.0
24/05:00am 1.8 -0.7 1.8 100 0.0 SSE 4 7 2 4 1016.4 1016.5 0.0
24/04:30am 1.7 0.0 1.7 100 0.0 CALM 0 0 0 0 1016.3 1016.3 0.0
24/04:00am 1.9 0.2 1.9 100 0.0 CALM 0 0 0 0 1016.3 1016.3 0.0
24/03:30am 2.2 0.2 2.2 100 0.0 SE 2 7 1 4 1016.3 1016.3 0.0
24/03:00am 2.9 0.2 2.9 100 0.0 SE 6 7 3 4 1016.6 1016.7 0.0
24/02:30am 2.8 0.1 2.8 100 0.0 SSE 6 7 3 4 1016.9 1017.0 0.0
24/02:00am 3.1 0.9 3.1 100 0.0 SSE 4 7 2 4 1016.9 1017.0 0.0
24/01:30am 3.4 2.0 3.4 100 0.0 CALM 0 0 0 0 1017.0 1017.1 0.0
24/01:00am 3.7 2.3 3.7 100 0.0 CALM 0 0 0 0 1017.4 1017.5 0.0
24/12:30am 3.9 2.6 3.9 100 0.0 CALM 0 0 0 0 1017.4 1017.5 0.0
24/12:00am 4.4 3.2 4.4 100 0.0 CALM 0 6 0 3 1017.7 1017.8 0.0
 
Date/Time
EST
Temp
°C
App
Temp
°C
Dew
Point
°C
Rel
Hum
%
Delta-T
°C
Wind Press
QNH
hPa
Press
MSL
hPa
Rain since
9am
mm
Dir  Spd
km/h
Gust
km/h
Spd
kts
Gust
kts
23/11:30pm 4.7 2.4 4.6 99 0.0 SSE 6 6 3 3 1017.6 1017.7 0.0
23/11:00pm 5.2 4.1 5.1 99 0.0 CALM 0 6 0 3 1017.7 1017.8 0.0
23/10:30pm 6.2 5.3 6.1 99 0.0 CALM 0 0 0 0 1017.6 1017.7 0.0
23/10:00pm 6.6 5.8 6.3 98 0.1 CALM 0 0 0 0 1017.5 1017.6 0.0
23/09:30pm 7.0 6.2 6.3 95 0.3 CALM 0 0 0 0 1017.7 1017.8 0.0
23/09:00pm 7.7 6.6 5.3 85 1.1 CALM 0 2 0 1 1017.9 1018.0 0.0
23/08:30pm 7.9 6.5 5.4 84 1.1 SSE 2 6 1 3 1017.8 1017.9 0.0
23/08:00pm 8.3 6.8 5.1 80 1.4 SSE 2 7 1 4 1017.6 1017.7 0.0
23/07:30pm 9.0 6.8 5.2 77 1.7 SSW 6 9 3 5 1017.6 1017.7 0.0
23/07:00pm 9.4 6.5 4.8 73 2.1 SW 9 11 5 6 1017.4 1017.5 0.0
23/06:30pm 9.7 6.8 4.7 71 2.2 SW 9 15 5 8 1017.4 1017.5 0.0
23/06:00pm 10.3 7.3 4.2 66 2.7 SW 9 17 5 9 1017.4 1017.5 0.0
23/05:30pm 11.1 7.8 4.3 63 3.1 SW 11 19 6 10 1017.5 1017.6 0.0
23/05:00pm 12.2 9.0 4.9 61 3.4 WSW 11 19 6 10 1017.2 1017.3 0.0
23/04:30pm 12.5 8.5 5.0 60 3.5 WSW 15 20 8 11 1017.2 1017.3 0.0
23/04:00pm 13.3 9.7 5.0 57 3.9 WSW 13 20 7 11 1017.1 1017.2 0.0
23/03:30pm 12.1 8.5 5.0 62 3.3 SW 13 20 7 11 1016.9 1017.0 0.0
23/03:00pm 13.5 9.9 4.9 56 4.0 WSW 13 19 7 10 1016.6 1016.7 0.0
23/02:30pm 12.4 9.4 3.9 56 3.8 SSW 9 13 5 7 1016.4 1016.5 0.0
23/02:00pm 12.8 10.8 4.3 56 3.9 SSE 4 9 2 5 1016.2 1016.2 0.0
23/01:30pm 12.8 9.6 3.2 52 4.3 SSW 9 20 5 11 1016.1 1016.1 0.0
23/01:00pm 12.9 10.4 4.8 58 3.7 S 7 15 4 8 1016.3 1016.3 0.0
23/12:30pm 12.2 9.5 3.9 57 3.7 S 7 15 4 8 1016.6 1016.7 0.0
23/12:00pm 11.9 8.7 2.9 54 3.9 S 9 17 5 9 1016.8 1016.9 0.0
23/11:30am 12.4 9.7 3.9 56 3.8 S 7 17 4 9 1017.1 1017.2 0.0
23/11:00am 11.1 9.1 7.0 76 2.0 SW 7 15 4 8 1017.5 1017.6 0.0
23/10:30am 9.0 8.4 9.0 100 0.0 S 2 6 1 3 1017.8 1017.9 0.0
23/10:00am 8.9 7.5 8.9 100 0.0 S 6 7 3 4 1018.0 1018.1 0.0
23/09:30am 8.5 7.4 8.5 100 0.0 S 4 7 2 4 1018.1 1018.2 0.0
23/09:00am 7.7 6.4 7.7 100 0.0 S 4 7 2 4 1018.1 1018.2 3.6
23/08:30am 7.0 6.3 7.0 100 0.0 CALM 0 0 0 0 1017.9 1018.0 3.6
23/08:00am 6.6 5.8 6.6 100 0.0 CALM 0 0 0 0 1017.7 1017.8 3.6
23/07:30am 6.1 5.2 6.1 100 0.0 CALM 0 0 0 0 1017.3 1017.4 3.6
23/07:00am 6.7 5.9 6.7 100 0.0 CALM 0 0 0 0 1016.9 1017.0 3.6
23/06:30am 7.0 6.3 7.0 100 0.0 CALM 0 0 0 0 1016.7 1016.8 3.4
23/06:00am 7.2 6.2 7.2 100 0.0 S 2 6 1 3 1016.4 1016.5 3.4
23/05:30am 7.8 6.9 7.8 100 0.0 S 2 6 1 3 1016.3 1016.3 3.4
23/05:00am 7.8 7.3 7.8 100 0.0 CALM 0 0 0 0 1016.0 1016.0 3.4
23/04:30am 8.5 7.0 8.5 100 0.0 S 6 7 3 4 1015.9 1015.9 3.4
23/04:00am 8.6 7.0 8.6 100 0.0 S 7 9 4 5 1015.6 1015.6 3.4
23/03:30am 8.8 8.2 8.8 100 0.0 S 2 6 1 3 1015.5 1015.5 3.4
23/03:00am 9.0 8.8 9.0 100 0.0 CALM 0 0 0 0 1015.6 1015.6 3.4
23/02:30am 9.1 8.9 9.1 100 0.0 CALM 0 0 0 0 1015.7 1015.7 3.4
23/02:00am 9.1 8.9 9.1 100 0.0 CALM 0 0 0 0 1015.8 1015.8 3.4
23/01:30am 9.1 8.9 9.1 100 0.0 CALM 0 6 0 3 1016.0 1016.0 3.2
23/01:00am 9.1 8.2 9.1 100 0.0 S 4 6 2 3 1016.1 1016.1 3.0
23/12:30am 9.0 7.6 9.0 100 0.0 S 6 6 3 3 1016.1 1016.1 2.8
23/12:00am 9.0 7.6 9.0 100 0.0 S 6 7 3 4 1016.0 1016.0 2.8
 
Date/Time
EST
Temp
°C
App
Temp
°C
Dew
Point
°C
Rel
Hum
%
Delta-T
°C
Wind Press
QNH
hPa
Press
MSL
hPa
Rain since
9am
mm
Dir  Spd
km/h
Gust
km/h
Spd
kts
Gust
kts
22/11:30pm 9.0 8.4 9.0 100 0.0 S 2 6 1 3 1016.0 1016.0 2.8
22/11:00pm 9.2 9.0 9.2 100 0.0 CALM 0 0 0 0 1016.1 1016.1 2.8
22/10:30pm 9.3 9.2 9.3 100 0.0 CALM 0 4 0 2 1016.0 1016.0 2.8
22/10:00pm 9.4 9.3 9.4 100 0.0 CALM 0 0 0 0 1015.9 1015.9 2.8
22/09:30pm 9.5 9.0 9.5 100 0.0 E 2 7 1 4 1015.8 1015.8 2.8
22/09:00pm 9.3 9.2 9.3 100 0.0 CALM 0 0 0 0 1015.6 1015.6 2.8
22/08:30pm 9.6 9.5 9.6 100 0.0 CALM 0 0 0 0 1015.4 1015.4 2.8
22/08:00pm 9.7 9.7 9.7 100 0.0 CALM 0 0 0 0 1015.1 1015.1 2.8
22/07:30pm 9.8 9.8 9.8 100 0.0 CALM 0 0 0 0 1014.9 1014.9 2.8
22/07:00pm 9.9 9.5 9.9 100 0.0 E 2 6 1 3 1014.5 1014.5 2.8
22/06:30pm 10.1 9.0 10.1 100 0.0 SE 6 9 3 5 1014.1 1014.1 2.8
22/06:00pm 10.3 10.1 10.3 100 0.0 S 2 7 1 4 1013.8 1013.8 2.4
22/05:30pm 10.4 10.1 10.2 99 0.1 SSE 2 6 1 3 1013.4 1013.4 2.4
22/05:00pm 10.9 10.9 9.7 92 0.6 CALM 0 0 0 0 1012.8 1012.8 2.4
22/04:30pm 10.5 10.6 10.3 99 0.1 CALM 0 0 0 0 1012.7 1012.7 2.4
22/04:00pm 9.6 8.4 9.6 100 0.0 SSE 6 9 3 5 1012.4 1012.4 2.4
22/03:30pm 9.5 6.5 9.4 99 0.0 SW 15 22 8 12 1012.6 1012.6 0.6
22/03:00pm 10.7 8.9 8.1 84 1.3 SW 7 13 4 7 1012.4 1012.4 0.0
22/02:30pm 10.2 7.1 7.4 83 1.3 SSW 13 19 7 10 1012.4 1012.4 0.0
22/02:00pm 11.0 6.2 5.5 69 2.5 WSW 20 33 11 18 1012.7 1012.7 0.0
22/01:55pm 11.4 5.8 5.5 67 2.7 WSW 24 44 13 24 1012.4 1012.4 0.0
22/01:30pm 16.4 12.6 7.6 56 4.4 NNE 17 28 9 15 1012.3 1012.3 0.0
22/01:00pm 15.3 11.1 5.8 53 4.6 N 17 32 9 17 1012.5 1012.5 0.0
22/12:30pm 15.6 11.7 6.9 56 4.3 N 17 30 9 16 1013.0 1013.0 0.0
22/12:00pm 15.4 12.6 6.9 57 4.2 NNE 11 20 6 11 1013.3 1013.3 0.0
22/11:30am 14.3 11.2 7.1 62 3.5 N 13 20 7 11 1013.8 1013.8 0.0
22/11:00am 13.7 9.6 6.1 60 3.6 NNW 17 28 9 15 1014.1 1014.1 0.0
22/10:30am 12.9 11.1 8.0 72 2.4 NE 7 15 4 8 1014.1 1014.1 0.0
22/10:00am 11.2 9.5 7.7 79 1.7 NE 6 13 3 7 1014.4 1014.4 0.0
22/09:30am 11.0 9.4 8.2 83 1.4 NE 6 11 3 6 1014.5 1014.5 0.0
22/09:00am 10.7 9.1 7.9 83 1.4 NE 6 9 3 5 1014.5 1014.5 1.8
22/08:30am 10.2 8.6 8.1 87 1.0 NE 6 11 3 6 1014.2 1014.2 1.8
22/08:00am 9.6 8.2 9.0 96 0.3 NE 6 9 3 5 1014.2 1014.2 1.8
22/07:30am 9.4 8.0 8.9 97 0.2 NE 6 11 3 6 1014.0 1014.0 1.8
22/07:00am 9.6 7.6 8.5 93 0.5 NNE 9 15 5 8 1014.1 1014.1 1.8
22/06:30am 9.6 8.6 7.5 87 1.0 ENE 2 7 1 4 1013.8 1013.8 1.8
22/06:00am 9.4 7.7 7.5 88 0.9 ENE 6 7 3 4 1013.5 1013.5 1.8
22/05:30am 9.5 8.2 7.6 88 0.9 NNE 4 7 2 4 1013.5 1013.5 1.8
22/05:00am 10.0 9.4 7.3 83 1.3 CALM 0 0 0 0 1013.5 1013.5 1.8
22/04:30am 9.9 9.3 7.5 85 1.1 CALM 0 0 0 0 1013.5 1013.5 1.8
22/04:00am 10.1 9.2 7.9 86 1.1 ESE 2 11 1 6 1013.5 1013.5 1.8
22/03:30am 10.1 9.6 7.9 86 1.1 CALM 0 0 0 0 1013.7 1013.7 1.8
22/03:00am 10.4 9.1 7.8 84 1.3 NE 4 9 2 5 1013.8 1013.8 1.8
22/02:30am 10.5 8.3 7.9 84 1.3 NNE 9 13 5 7 1013.8 1013.8 1.8
22/02:00am 10.9 8.0 6.6 75 2.0 N 11 17 6 9 1014.1 1014.1 1.8
22/01:30am 10.9 7.2 6.5 74 2.1 NNW 15 22 8 12 1014.3 1014.3 1.8
22/01:00am 10.9 7.7 6.8 76 1.9 NNW 13 20 7 11 1014.2 1014.2 1.8
22/12:30am 11.0 7.9 7.1 77 1.9 N 13 22 7 12 1014.2 1014.2 1.8
22/12:00am 10.8 8.6 7.7 81 1.5 N 9 15 5 8 1014.3 1014.3 1.8
 
Date/Time
EST
Temp
°C
App
Temp
°C
Dew
Point
°C
Rel
Hum
%
Delta-T
°C
Wind Press
QNH
hPa
Press
MSL
hPa
Rain since
9am
mm
Dir  Spd
km/h
Gust
km/h
Spd
kts
Gust
kts
21/11:30pm 10.7 8.6 8.1 84 1.3 N 9 13 5 7 1014.3 1014.3 1.8
21/11:00pm 10.6 8.5 8.4 86 1.1 NNE 9 15 5 8 1014.5 1014.5 1.8
21/10:30pm 10.5 8.5 8.6 88 0.9 NNE 9 13 5 7 1014.7 1014.7 1.8
21/10:00pm 10.4 8.4 8.5 88 0.9 N 9 15 5 8 1014.7 1014.7 1.8
21/09:30pm 10.5 8.4 8.4 87 1.0 N 9 13 5 7 1014.7 1014.7 1.8
21/09:00pm 10.3 9.0 9.2 93 0.5 NNE 6 9 3 5 1014.5 1014.5 1.8
21/08:30pm 10.4 9.6 9.5 94 0.5 NE 4 7 2 4 1014.3 1014.3 1.8

Other Formats:

Comma delimited format used in spreadsheet applications
http://www.bom.gov.au/fwo/IDV60801/IDV60801.95874.axf

JavaScript Object Notation format (JSON) in row-major order
http://www.bom.gov.au/fwo/IDV60801/IDV60801.95874.json